sensor_id;sensor_type;location;lat;lon;timestamp;P1;durP1;ratioP1;P2;durP2;ratioP2
64242;SDS011;50573;51.512;5.386;2023-08-30T00:06:32;17.90;;;11.55;;
64242;SDS011;50573;51.512;5.386;2023-08-30T00:16:35;18.05;;;12.00;;
64242;SDS011;50573;51.512;5.386;2023-08-30T00:26:41;17.27;;;11.80;;
64242;SDS011;50573;51.512;5.386;2023-08-30T00:36:44;15.63;;;11.27;;
64242;SDS011;50573;51.512;5.386;2023-08-30T00:46:48;19.10;;;12.07;;
64242;SDS011;50573;51.512;5.386;2023-08-30T00:56:51;14.82;;;11.48;;
64242;SDS011;50573;51.512;5.386;2023-08-30T01:06:56;19.83;;;11.68;;
64242;SDS011;50573;51.512;5.386;2023-08-30T01:17:01;16.88;;;11.93;;
64242;SDS011;50573;51.512;5.386;2023-08-30T01:27:10;15.48;;;11.48;;
64242;SDS011;50573;51.512;5.386;2023-08-30T01:37:14;18.27;;;11.88;;
64242;SDS011;50573;51.512;5.386;2023-08-30T01:47:19;17.83;;;11.00;;
64242;SDS011;50573;51.512;5.386;2023-08-30T01:57:23;14.35;;;10.60;;
64242;SDS011;50573;51.512;5.386;2023-08-30T02:07:28;18.92;;;11.65;;
64242;SDS011;50573;51.512;5.386;2023-08-30T02:17:40;17.45;;;12.57;;
64242;SDS011;50573;51.512;5.386;2023-08-30T02:27:45;23.88;;;13.35;;
64242;SDS011;50573;51.512;5.386;2023-08-30T02:37:48;21.13;;;12.80;;
64242;SDS011;50573;51.512;5.386;2023-08-30T02:47:54;19.08;;;12.95;;
64242;SDS011;50573;51.512;5.386;2023-08-30T02:57:58;20.17;;;14.05;;
64242;SDS011;50573;51.512;5.386;2023-08-30T03:08:03;20.10;;;14.07;;
64242;SDS011;50573;51.512;5.386;2023-08-30T03:18:07;22.67;;;14.93;;
64242;SDS011;50573;51.512;5.386;2023-08-30T03:28:12;23.73;;;14.77;;
64242;SDS011;50573;51.512;5.386;2023-08-30T03:38:15;19.38;;;13.15;;
64242;SDS011;50573;51.512;5.386;2023-08-30T03:48:20;19.40;;;13.75;;
64242;SDS011;50573;51.512;5.386;2023-08-30T03:58:23;19.02;;;14.70;;
64242;SDS011;50573;51.512;5.386;2023-08-30T04:08:28;22.08;;;15.50;;
64242;SDS011;50573;51.512;5.386;2023-08-30T04:18:31;24.83;;;16.67;;
64242;SDS011;50573;51.512;5.386;2023-08-30T04:28:35;23.40;;;17.00;;
64242;SDS011;50573;51.512;5.386;2023-08-30T04:38:38;23.42;;;15.85;;
64242;SDS011;50573;51.512;5.386;2023-08-30T04:49:02;26.35;;;16.50;;
64242;SDS011;50573;51.512;5.386;2023-08-30T04:59:06;22.23;;;14.30;;
64242;SDS011;50573;51.512;5.386;2023-08-30T05:09:15;21.27;;;14.38;;
64242;SDS011;50573;51.512;5.386;2023-08-30T05:19:18;21.92;;;14.57;;
64242;SDS011;50573;51.512;5.386;2023-08-30T05:29:23;20.80;;;14.55;;
64242;SDS011;50573;51.512;5.386;2023-08-30T05:49:33;21.92;;;14.90;;
64242;SDS011;50573;51.512;5.386;2023-08-30T05:59:36;20.20;;;15.40;;
64242;SDS011;50573;51.512;5.386;2023-08-30T06:09:40;19.70;;;13.93;;
64242;SDS011;50573;51.512;5.386;2023-08-30T06:19:44;22.17;;;14.60;;
64242;SDS011;50573;51.512;5.386;2023-08-30T06:29:48;23.08;;;12.57;;
64242;SDS011;50573;51.512;5.386;2023-08-30T06:39:52;22.00;;;13.63;;
64242;SDS011;50573;51.512;5.386;2023-08-30T06:49:58;22.88;;;15.57;;
64242;SDS011;50573;51.512;5.386;2023-08-30T07:00:05;22.42;;;15.73;;
64242;SDS011;50573;51.512;5.386;2023-08-30T07:10:11;26.38;;;16.45;;
64242;SDS011;50573;51.512;5.386;2023-08-30T07:20:16;31.98;;;17.30;;
64242;SDS011;50573;51.512;5.386;2023-08-30T07:30:35;20.73;;;14.43;;
64242;SDS011;50573;51.512;5.386;2023-08-30T07:40:39;22.88;;;13.40;;
64242;SDS011;50573;51.512;5.386;2023-08-30T07:50:44;18.85;;;12.48;;
64242;SDS011;50573;51.512;5.386;2023-08-30T08:00:58;14.95;;;11.20;;
64242;SDS011;50573;51.512;5.386;2023-08-30T08:11:06;19.20;;;11.30;;
64242;SDS011;50573;51.512;5.386;2023-08-30T08:21:15;15.25;;;10.48;;
64242;SDS011;50573;51.512;5.386;2023-08-30T08:31:23;13.80;;;9.10;;
64242;SDS011;50573;51.512;5.386;2023-08-30T08:41:32;14.98;;;8.00;;
64242;SDS011;50573;51.512;5.386;2023-08-30T08:51:40;11.95;;;7.30;;
64242;SDS011;50573;51.512;5.386;2023-08-30T09:01:45;7.57;;;5.93;;
64242;SDS011;50573;51.512;5.386;2023-08-30T09:11:51;9.67;;;6.60;;
64242;SDS011;50573;51.512;5.386;2023-08-30T09:21:57;9.60;;;6.32;;
64242;SDS011;50573;51.512;5.386;2023-08-30T09:32:03;7.93;;;5.10;;
64242;SDS011;50573;51.512;5.386;2023-08-30T09:42:07;10.88;;;7.07;;
64242;SDS011;50573;51.512;5.386;2023-08-30T10:02:31;9.02;;;7.47;;
64242;SDS011;50573;51.512;5.386;2023-08-30T10:12:37;9.18;;;7.13;;
64242;SDS011;50573;51.512;5.386;2023-08-30T10:22:53;9.48;;;8.20;;
64242;SDS011;50573;51.512;5.386;2023-08-30T10:33:11;10.55;;;8.73;;
64242;SDS011;50573;51.512;5.386;2023-08-30T10:43:15;8.77;;;7.82;;
64242;SDS011;50573;51.512;5.386;2023-08-30T10:53:19;7.17;;;6.47;;
64242;SDS011;50573;51.512;5.386;2023-08-30T11:03:31;7.17;;;5.33;;
64242;SDS011;50573;51.512;5.386;2023-08-30T11:13:37;7.32;;;4.70;;
64242;SDS011;50573;51.512;5.386;2023-08-30T11:23:43;12.50;;;4.65;;
64242;SDS011;50573;51.512;5.386;2023-08-30T11:33:52;8.15;;;2.78;;
64242;SDS011;50573;51.512;5.386;2023-08-30T11:44:00;13.30;;;3.40;;
64242;SDS011;50573;51.512;5.386;2023-08-30T11:54:07;11.65;;;3.08;;
64242;SDS011;50573;51.512;5.386;2023-08-30T12:04:14;9.90;;;3.50;;
64242;SDS011;50573;51.512;5.386;2023-08-30T12:14:33;6.65;;;2.65;;
64242;SDS011;50573;51.512;5.386;2023-08-30T12:24:40;6.43;;;2.78;;
64242;SDS011;50573;51.512;5.386;2023-08-30T12:34:48;11.13;;;3.35;;
64242;SDS011;50573;51.512;5.386;2023-08-30T12:44:51;12.05;;;2.83;;
64242;SDS011;50573;51.512;5.386;2023-08-30T12:54:55;11.23;;;2.60;;
64242;SDS011;50573;51.512;5.386;2023-08-30T13:04:59;8.32;;;2.85;;
64242;SDS011;50573;51.512;5.386;2023-08-30T13:15:13;7.63;;;2.60;;
64242;SDS011;50573;51.512;5.386;2023-08-30T13:25:22;13.25;;;2.65;;
64242;SDS011;50573;51.512;5.386;2023-08-30T13:35:30;12.13;;;2.55;;
64242;SDS011;50573;51.512;5.386;2023-08-30T13:45:37;10.15;;;2.78;;
64242;SDS011;50573;51.512;5.386;2023-08-30T13:55:48;5.30;;;2.25;;
64242;SDS011;50573;51.512;5.386;2023-08-30T14:05:55;11.43;;;2.15;;
64242;SDS011;50573;51.512;5.386;2023-08-30T14:16:05;6.90;;;1.80;;
64242;SDS011;50573;51.512;5.386;2023-08-30T14:26:10;9.07;;;2.40;;
64242;SDS011;50573;51.512;5.386;2023-08-30T14:46:27;11.23;;;1.90;;
64242;SDS011;50573;51.512;5.386;2023-08-30T14:56:36;6.75;;;1.40;;
64242;SDS011;50573;51.512;5.386;2023-08-30T15:06:45;6.60;;;1.58;;
64242;SDS011;50573;51.512;5.386;2023-08-30T15:16:53;1.90;;;1.00;;
64242;SDS011;50573;51.512;5.386;2023-08-30T15:27:02;5.43;;;1.48;;
64242;SDS011;50573;51.512;5.386;2023-08-30T15:37:11;6.93;;;1.80;;
64242;SDS011;50573;51.512;5.386;2023-08-30T15:47:17;5.95;;;1.67;;
64242;SDS011;50573;51.512;5.386;2023-08-30T15:57:28;10.48;;;1.50;;
64242;SDS011;50573;51.512;5.386;2023-08-30T16:07:34;4.78;;;1.15;;
64242;SDS011;50573;51.512;5.386;2023-08-30T16:17:47;3.50;;;1.42;;
64242;SDS011;50573;51.512;5.386;2023-08-30T16:27:50;6.30;;;1.57;;
64242;SDS011;50573;51.512;5.386;2023-08-30T16:37:55;15.27;;;1.83;;
64242;SDS011;50573;51.512;5.386;2023-08-30T16:48:07;8.10;;;1.30;;
64242;SDS011;50573;51.512;5.386;2023-08-30T16:58:16;5.38;;;1.33;;
64242;SDS011;50573;51.512;5.386;2023-08-30T17:08:23;4.22;;;1.17;;
64242;SDS011;50573;51.512;5.386;2023-08-30T17:18:32;3.78;;;1.02;;
64242;SDS011;50573;51.512;5.386;2023-08-30T17:28:39;6.00;;;1.70;;
64242;SDS011;50573;51.512;5.386;2023-08-30T17:38:50;4.80;;;1.20;;
64242;SDS011;50573;51.512;5.386;2023-08-30T17:48:55;8.27;;;1.63;;
64242;SDS011;50573;51.512;5.386;2023-08-30T17:59:06;5.72;;;2.05;;
64242;SDS011;50573;51.512;5.386;2023-08-30T18:09:14;8.90;;;1.63;;
64242;SDS011;50573;51.512;5.386;2023-08-30T18:19:24;3.55;;;1.40;;
64242;SDS011;50573;51.512;5.386;2023-08-30T18:29:27;5.22;;;1.70;;
64242;SDS011;50573;51.512;5.386;2023-08-30T18:39:33;6.55;;;1.95;;
64242;SDS011;50573;51.512;5.386;2023-08-30T18:49:36;15.80;;;3.85;;
64242;SDS011;50573;51.512;5.386;2023-08-30T18:59:42;7.87;;;2.23;;
64242;SDS011;50573;51.512;5.386;2023-08-30T19:09:45;10.00;;;2.53;;
64242;SDS011;50573;51.512;5.386;2023-08-30T19:19:49;6.50;;;2.45;;
64242;SDS011;50573;51.512;5.386;2023-08-30T19:29:52;7.13;;;2.63;;
64242;SDS011;50573;51.512;5.386;2023-08-30T19:39:57;4.22;;;2.38;;
64242;SDS011;50573;51.512;5.386;2023-08-30T19:50:02;7.13;;;2.55;;
64242;SDS011;50573;51.512;5.386;2023-08-30T20:00:07;9.65;;;2.72;;
64242;SDS011;50573;51.512;5.386;2023-08-30T20:10:13;10.20;;;4.15;;
64242;SDS011;50573;51.512;5.386;2023-08-30T20:20:18;10.68;;;3.47;;
64242;SDS011;50573;51.512;5.386;2023-08-30T20:30:21;7.18;;;3.15;;
64242;SDS011;50573;51.512;5.386;2023-08-30T20:40:25;10.00;;;3.85;;
64242;SDS011;50573;51.512;5.386;2023-08-30T20:50:28;5.57;;;3.17;;
64242;SDS011;50573;51.512;5.386;2023-08-30T21:00:33;8.15;;;3.75;;
64242;SDS011;50573;51.512;5.386;2023-08-30T21:20:40;5.72;;;2.78;;
64242;SDS011;50573;51.512;5.386;2023-08-30T21:30:44;4.78;;;2.75;;
64242;SDS011;50573;51.512;5.386;2023-08-30T21:40:48;3.90;;;2.53;;
64242;SDS011;50573;51.512;5.386;2023-08-30T21:50:53;6.40;;;2.08;;
64242;SDS011;50573;51.512;5.386;2023-08-30T22:00:58;3.60;;;2.50;;
64242;SDS011;50573;51.512;5.386;2023-08-30T22:11:05;4.68;;;2.33;;
64242;SDS011;50573;51.512;5.386;2023-08-30T22:21:10;6.35;;;2.45;;
64242;SDS011;50573;51.512;5.386;2023-08-30T22:31:13;2.87;;;2.30;;
64242;SDS011;50573;51.512;5.386;2023-08-30T22:41:18;5.93;;;2.65;;
64242;SDS011;50573;51.512;5.386;2023-08-30T22:51:21;7.73;;;3.37;;
64242;SDS011;50573;51.512;5.386;2023-08-30T23:11:31;4.60;;;3.73;;
64242;SDS011;50573;51.512;5.386;2023-08-30T23:21:35;11.80;;;3.80;;
64242;SDS011;50573;51.512;5.386;2023-08-30T23:31:38;11.60;;;4.45;;
64242;SDS011;50573;51.512;5.386;2023-08-30T23:41:43;8.13;;;4.85;;
64242;SDS011;50573;51.512;5.386;2023-08-30T23:51:46;9.15;;;5.13;;
